Time;durP1;ratioP1;P1;durP2;ratioP2;P2;SDS_P1;SDS_P2;PMS_P1;PMS_P2;Temp;Humidity;BMP_temperature;BMP_pressure;BME280_temperature;BME280_humidity;BME280_pressure;Samples;Min_cycle;Max_cycle;Signal;HPM_P1;HPM_P2
2023/01/21 00:00:35;;;;;;;;;;;;;;;18.88;31.74;95761.44;10426615;28;2257;-50
2023/01/21 00:05:36;;;;;;;;;;;;;;;18.84;31.46;95757.75;10421305;28;2342;-48
2023/01/21 00:10:36;;;;;;;;;;;;;;;18.82;31.50;95766.94;10426883;28;2289;-51
2023/01/21 00:15:36;;;;;;;;;;;;;;;18.80;31.45;95769.03;10467039;28;2321;-52
2023/01/21 00:20:36;;;;;;;;;;;;;;;18.77;31.54;95761.72;10435334;28;2293;-51
2023/01/21 00:25:37;;;;;;;;;;;;;;;18.73;31.42;95765.91;10431653;28;2357;-53
2023/01/21 00:30:38;;;;;;;;;;;;;;;18.70;31.28;95764.59;10427071;28;2280;-50
2023/01/21 00:35:40;;;;;;;;;;;;;;;18.65;31.44;95759.31;10427330;28;2323;-53
2023/01/21 00:40:41;;;;;;;;;;;;;;;18.63;31.43;95762.22;10427962;28;2385;-52
2023/01/21 00:45:41;;;;;;;;;;;;;;;18.60;31.60;95761.94;10420692;28;2614;-52
2023/01/21 00:50:42;;;;;;;;;;;;;;;18.57;31.42;95778.22;10425813;28;2282;-54
2023/01/21 00:55:42;;;;;;;;;;;;;;;18.54;31.35;95773.50;10421982;28;2357;-50
2023/01/21 01:00:42;;;;;;;;;;;;;;;18.52;31.37;95775.59;10429676;28;2325;-53
2023/01/21 01:05:42;;;;;;;;;;;;;;;18.49;31.33;95786.59;10428041;28;2389;-51
2023/01/21 01:10:43;;;;;;;;;;;;;;;18.45;31.45;95790.78;10420658;28;2377;-52
2023/01/21 01:15:43;;;;;;;;;;;;;;;18.44;31.32;95794.47;10421607;28;2290;-52
2023/01/21 01:20:44;;;;;;;;;;;;;;;18.40;31.38;95790.75;10419978;28;2359;-51
2023/01/21 01:25:52;;;;;;;;;;;;;;;18.38;31.36;95790.22;10427789;28;2646;-52
2023/01/21 01:30:53;;;;;;;;;;;;;;;18.35;31.32;95788.91;10432044;28;2322;-52
2023/01/21 01:35:53;;;;;;;;;;;;;;;18.34;31.33;95794.41;10424710;28;2337;-55
2023/01/21 01:40:53;;;;;;;;;;;;;;;18.32;31.07;95792.03;10421821;28;2282;-52
2023/01/21 01:45:53;;;;;;;;;;;;;;;18.29;31.16;95791.75;10419023;28;2674;-52
2023/01/21 01:50:54;;;;;;;;;;;;;;;18.27;31.10;95794.66;10436316;28;2399;-55
2023/01/21 01:55:54;;;;;;;;;;;;;;;18.25;31.15;95802.00;10446749;28;2244;-53
2023/01/21 02:00:55;;;;;;;;;;;;;;;18.23;31.10;95798.03;10436307;28;2344;-53
2023/01/21 02:05:55;;;;;;;;;;;;;;;18.22;31.13;95804.31;10418902;28;2742;-52
2023/01/21 02:10:56;;;;;;;;;;;;;;;18.20;31.13;95799.34;10430408;28;2410;-53
2023/01/21 02:16:06;;;;;;;;;;;;;;;18.16;31.04;95798.28;10423622;28;2279;-51
2023/01/21 02:21:09;;;;;;;;;;;;;;;18.15;31.14;95795.91;10413895;28;2271;-52
2023/01/21 02:26:20;;;;;;;;;;;;;;;18.13;31.03;95805.88;10419044;28;2258;-50
2023/01/21 02:31:27;;;;;;;;;;;;;;;18.11;31.08;95795.66;10419840;28;2323;-55
2023/01/21 02:36:34;;;;;;;;;;;;;;;18.10;30.93;95796.66;10406893;28;2380;-54
2023/01/21 02:41:37;;;;;;;;;;;;;;;18.07;30.98;95802.44;10419641;28;2335;-52
2023/01/21 02:46:42;;;;;;;;;;;;;;;18.04;31.14;95813.44;10421019;28;2334;-54
2023/01/21 02:51:46;;;;;;;;;;;;;;;18.03;31.13;95809.25;10420226;28;2387;-54
2023/01/21 02:56:46;;;;;;;;;;;;;;;18.01;31.07;95798.19;10436446;28;2467;-54
2023/01/21 03:01:52;;;;;;;;;;;;;;;18.00;30.90;95803.69;10422016;28;2393;-53
2023/01/21 03:07:12;;;;;;;;;;;;;;;17.98;30.93;95801.34;10425479;28;2333;-51
2023/01/21 03:12:21;;;;;;;;;;;;;;;17.97;31.02;95810.25;10423124;28;2274;-51
2023/01/21 03:17:41;;;;;;;;;;;;;;;17.95;30.92;95799.22;10422659;28;2416;-50
2023/01/21 03:22:41;;;;;;;;;;;;;;;17.94;30.94;95804.72;10423353;28;2354;-47
2023/01/21 03:27:41;;;;;;;;;;;;;;;17.91;31.08;95789.53;10414484;28;2354;-49
2023/01/21 03:32:42;;;;;;;;;;;;;;;17.89;30.91;95792.38;10431587;28;2399;-53
2023/01/21 03:37:45;;;;;;;;;;;;;;;17.88;30.91;95794.22;10425424;28;2296;-51
2023/01/21 03:42:46;;;;;;;;;;;;;;;17.82;30.76;95790.00;10427683;28;2299;-51
2023/01/21 03:47:49;;;;;;;;;;;;;;;17.83;30.93;95788.94;10416126;28;2359;-52
2023/01/21 03:52:49;;;;;;;;;;;;;;;17.83;30.87;95785.53;10429028;28;2360;-50
2023/01/21 03:57:49;;;;;;;;;;;;;;;17.80;30.81;95794.69;10430879;28;2376;-52
2023/01/21 04:02:50;;;;;;;;;;;;;;;17.79;30.72;95790.50;10422197;28;2315;-49
2023/01/21 04:07:50;;;;;;;;;;;;;;;17.77;30.80;95784.72;10425716;28;2286;-51
2023/01/21 04:12:50;;;;;;;;;;;;;;;17.75;31.00;95781.56;10427481;28;2218;-52
2023/01/21 04:17:51;;;;;;;;;;;;;;;17.78;30.91;95791.53;10423812;28;2488;-48
2023/01/21 04:22:51;;;;;;;;;;;;;;;17.77;31.11;95792.59;10418990;28;2317;-48
2023/01/21 04:27:51;;;;;;;;;;;;;;;17.77;30.85;95794.41;10422448;28;2475;-49
2023/01/21 04:32:51;;;;;;;;;;;;;;;17.77;31.04;95794.41;10434683;28;2428;-52
2023/01/21 04:37:52;;;;;;;;;;;;;;;17.76;30.82;95796.25;10435066;28;2702;-53
2023/01/21 04:42:52;;;;;;;;;;;;;;;17.77;30.86;95800.44;10433178;28;2261;-50
2023/01/21 04:47:52;;;;;;;;;;;;;;;17.77;30.78;95803.06;10435445;28;2350;-53
2023/01/21 04:52:53;;;;;;;;;;;;;;;17.77;30.78;95803.06;10423561;28;2334;-52
2023/01/21 04:57:53;;;;;;;;;;;;;;;17.79;30.85;95813.31;10428002;28;2441;-49
2023/01/21 05:02:53;;;;;;;;;;;;;;;17.80;30.73;95818.28;10432412;28;2325;-53
2023/01/21 05:07:54;;;;;;;;;;;;;;;17.82;30.67;95818.84;10426584;28;2284;-48
2023/01/21 05:12:54;;;;;;;;;;;;;;;17.85;30.64;95804.41;10426475;28;2372;-50
2023/01/21 05:17:54;;;;;;;;;;;;;;;17.91;30.47;95810.50;10421169;28;2306;-48
2023/01/21 05:22:55;;;;;;;;;;;;;;;17.97;30.44;95809.47;10426276;28;2287;-50
2023/01/21 05:27:55;;;;;;;;;;;;;;;18.05;30.37;95801.91;10428688;28;2266;-53
2023/01/21 05:32:55;;;;;;;;;;;;;;;18.10;30.35;95793.25;10422001;28;2285;-48
2023/01/21 05:37:56;;;;;;;;;;;;;;;18.17;30.18;95799.06;10423415;28;2313;-47
2023/01/21 05:42:56;;;;;;;;;;;;;;;18.23;29.95;95804.09;10414711;28;2337;-50
2023/01/21 05:47:56;;;;;;;;;;;;;;;18.29;30.06;95807.50;10419068;28;2261;-50
2023/01/21 05:52:57;;;;;;;;;;;;;;;18.35;29.84;95816.97;10432471;28;2269;-51
2023/01/21 05:57:57;;;;;;;;;;;;;;;18.35;29.78;95817.75;10419046;28;2581;-51
2023/01/21 06:03:01;;;;;;;;;;;;;;;18.45;29.63;95824.91;10420392;28;2413;-50
2023/01/21 06:08:01;;;;;;;;;;;;;;;18.47;29.79;95815.72;10419318;28;2259;-47
2023/01/21 06:13:01;;;;;;;;;;;;;;;18.53;29.73;95816.53;10420313;28;2342;-50
2023/01/21 06:18:01;;;;;;;;;;;;;;;18.57;29.60;95814.97;10429912;28;2297;-50
2023/01/21 06:23:02;;;;;;;;;;;;;;;18.57;29.63;95825.47;10419537;28;2271;-50
2023/01/21 06:28:02;;;;;;;;;;;;;;;18.60;29.43;95830.22;10424392;28;2298;-49
2023/01/21 06:33:03;;;;;;;;;;;;;;;18.62;29.49;95828.13;10422917;28;2328;-52
2023/01/21 06:38:03;;;;;;;;;;;;;;;18.65;29.63;95835.44;10422794;28;2318;-50
2023/01/21 06:43:03;;;;;;;;;;;;;;;18.67;29.60;95841.22;10411865;28;2305;-48
2023/01/21 06:48:03;;;;;;;;;;;;;;;18.72;29.66;95841.25;10417838;28;2370;-50
2023/01/21 06:53:04;;;;;;;;;;;;;;;18.73;29.55;95840.22;10423899;28;2302;-50
2023/01/21 06:58:04;;;;;;;;;;;;;;;18.76;29.33;95838.91;10419213;28;2350;-51
2023/01/21 07:03:04;;;;;;;;;;;;;;;18.75;29.26;95846.00;10424038;28;2310;-51
2023/01/21 07:08:04;;;;;;;;;;;;;;;18.77;29.43;95849.16;10427665;28;2317;-52
2023/01/21 07:13:05;;;;;;;;;;;;;;;18.79;29.31;95852.31;10419259;28;2367;-51
2023/01/21 07:18:05;;;;;;;;;;;;;;;18.82;29.26;95848.38;10419555;28;2389;-49
2023/01/21 07:23:05;;;;;;;;;;;;;;;18.85;29.12;95859.16;10419094;28;2313;-50
2023/01/21 07:28:06;;;;;;;;;;;;;;;18.86;28.97;95871.22;10424699;28;2371;-52
2023/01/21 07:33:08;;;;;;;;;;;;;;;18.87;29.11;95866.78;10428673;28;2360;-49
2023/01/21 07:38:08;;;;;;;;;;;;;;;18.89;29.28;95872.56;10425288;28;2372;-52
2023/01/21 07:43:08;;;;;;;;;;;;;;;18.92;29.30;95879.94;10424450;28;2464;-51
2023/01/21 07:48:09;;;;;;;;;;;;;;;18.93;29.31;95884.13;10420976;28;2385;-48
2023/01/21 07:53:10;;;;;;;;;;;;;;;18.94;29.14;95878.59;10425690;28;2203;-50
2023/01/21 07:58:10;;;;;;;;;;;;;;;18.96;29.16;95881.75;10415288;28;2479;-51
2023/01/21 08:03:10;;;;;;;;;;;;;;;18.97;29.12;95880.72;10430001;28;2463;-52
2023/01/21 08:08:11;;;;;;;;;;;;;;;18.98;29.12;95884.91;10421598;28;2267;-51
2023/01/21 08:13:11;;;;;;;;;;;;;;;18.98;29.05;95879.66;10419350;28;2268;-50
2023/01/21 08:18:11;;;;;;;;;;;;;;;18.97;29.23;95883.34;10416621;28;2263;-47
2023/01/21 08:23:11;;;;;;;;;;;;;;;18.92;29.00;95877.31;10420433;28;2254;-48
2023/01/21 08:28:13;;;;;;;;;;;;;;;18.91;28.85;95878.34;10419115;28;2326;-50
2023/01/21 08:33:13;;;;;;;;;;;;;;;18.90;28.90;95893.28;10419635;28;2393;-48
2023/01/21 08:38:13;;;;;;;;;;;;;;;18.86;29.09;95887.00;10431825;28;2342;-52
2023/01/21 08:43:13;;;;;;;;;;;;;;;18.82;29.23;95888.56;10423273;28;2299;-53
2023/01/21 08:48:14;;;;;;;;;;;;;;;18.82;29.45;95893.81;10424478;28;2288;-51
2023/01/21 08:53:14;;;;;;;;;;;;;;;18.84;29.44;95901.41;10427942;28;2331;-50
2023/01/21 08:58:14;;;;;;;;;;;;;;;18.83;29.67;95887.53;10428509;28;2382;-49
2023/01/21 09:03:16;;;;;;;;;;;;;;;18.83;29.91;95908.53;10424416;28;2306;-48
2023/01/21 09:08:17;;;;;;;;;;;;;;;18.84;30.39;95904.03;10416196;28;2317;-50
2023/01/21 09:13:18;;;;;;;;;;;;;;;18.83;30.53;95907.72;10423315;28;2319;-54
2023/01/21 09:18:19;;;;;;;;;;;;;;;18.80;31.08;95902.97;10419317;28;2311;-49
2023/01/21 09:23:25;;;;;;;;;;;;;;;18.77;30.93;95906.94;10425002;28;2241;-51
2023/01/21 09:28:26;;;;;;;;;;;;;;;18.73;30.59;95899.81;10427820;28;2306;-51
2023/01/21 09:33:26;;;;;;;;;;;;;;;18.72;30.51;95906.91;10425719;28;2276;-51
2023/01/21 09:38:27;;;;;;;;;;;;;;;18.67;30.46;95901.63;10422700;28;2280;-52
2023/01/21 09:43:34;;;;;;;;;;;;;;;18.61;31.15;95900.81;10426585;28;2292;-54
2023/01/21 09:48:35;;;;;;;;;;;;;;;18.63;31.24;95900.56;10429584;28;2344;-50
2023/01/21 09:53:39;;;;;;;;;;;;;;;18.60;31.56;95908.97;10413785;28;2369;-52
2023/01/21 09:58:40;;;;;;;;;;;;;;;18.58;31.47;95911.84;10424521;28;2521;-53
2023/01/21 10:03:47;;;;;;;;;;;;;;;18.54;31.35;95910.00;10428445;28;2342;-49
2023/01/21 10:09:06;;;;;;;;;;;;;;;18.50;31.30;95895.81;10423595;28;2278;-47
2023/01/21 10:14:24;;;;;;;;;;;;;;;18.46;31.32;95903.41;10416968;28;2487;-48
2023/01/21 10:19:32;;;;;;;;;;;;;;;18.42;32.05;95897.03;10417468;28;2249;-48
2023/01/21 10:24:34;;;;;;;;;;;;;;;18.42;33.01;95902.28;10419271;28;2256;-48
2023/01/21 10:29:34;;;;;;;;;;;;;;;18.39;33.50;95902.00;10430001;28;2333;-50
2023/01/21 10:34:37;;;;;;;;;;;;;;;18.36;33.41;95905.94;10424000;28;2386;-48
2023/01/21 10:39:43;;;;;;;;;;;;;;;18.34;33.47;95907.25;10419077;28;2293;-48
2023/01/21 10:44:52;;;;;;;;;;;;;;;18.36;33.12;95897.28;10419422;28;2341;-49
2023/01/21 10:49:54;;;;;;;;;;;;;;;18.33;33.73;95900.41;10412495;28;2334;-48
2023/01/21 10:55:24;;;;;;;;;;;;;;;18.28;34.34;95898.53;10408878;28;2310;-50
2023/01/21 11:00:31;;;;;;;;;;;;;;;18.28;33.49;95895.16;10410111;28;2322;-49
2023/01/21 11:05:32;;;;;;;;;;;;;;;18.24;34.10;95894.06;10418201;28;2290;-44
2023/01/21 11:10:32;;;;;;;;;;;;;;;18.22;33.72;95883.03;10414705;28;2269;-49
2023/01/21 11:15:32;;;;;;;;;;;;;;;18.14;34.60;95888.75;10420894;28;2395;-53
2023/01/21 11:20:39;;;;;;;;;;;;;;;18.12;34.21;95880.34;10413755;28;2293;-48
2023/01/21 11:25:40;;;;;;;;;;;;;;;18.10;34.31;95885.88;10419498;28;2243;-52
2023/01/21 11:30:40;;;;;;;;;;;;;;;18.08;33.93;95879.28;10408480;28;2334;-49
2023/01/21 11:35:40;;;;;;;;;;;;;;;18.03;33.94;95869.56;10416792;28;2383;-50
2023/01/21 11:40:41;;;;;;;;;;;;;;;18.01;33.77;95870.88;10412542;28;2344;-50
2023/01/21 11:45:41;;;;;;;;;;;;;;;17.98;33.67;95863.50;10416802;28;2582;-51
2023/01/21 11:50:41;;;;;;;;;;;;;;;17.93;34.05;95866.09;10410743;28;2533;-50
2023/01/21 11:55:44;;;;;;;;;;;;;;;17.90;33.67;95864.78;10417526;28;2580;-50
2023/01/21 12:00:45;;;;;;;;;;;;;;;17.87;33.56;95866.06;10436401;28;2680;-52
2023/01/21 12:05:48;;;;;;;;;;;;;;;17.85;33.54;95856.88;10415483;28;2640;-52
2023/01/21 12:10:49;;;;;;;;;;;;;;;17.82;33.42;95847.69;10442727;28;2562;-51
2023/01/21 12:16:02;;;;;;;;;;;;;;;17.80;33.61;95846.34;10425655;28;2692;-52
2023/01/21 12:21:09;;;;;;;;;;;;;;;17.78;33.50;95843.19;10420980;28;2531;-51
2023/01/21 12:26:20;;;;;;;;;;;;;;;17.77;33.45;95839.78;10425758;28;2618;-48
2023/01/21 12:31:24;;;;;;;;;;;;;;;17.76;33.41;95840.81;10423508;28;2587;-51
2023/01/21 12:36:28;;;;;;;;;;;;;;;17.75;33.41;95839.25;10420686;28;2752;-48
2023/01/21 12:41:29;;;;;;;;;;;;;;;17.76;33.26;95835.56;10424220;28;2565;-51
2023/01/21 12:46:35;;;;;;;;;;;;;;;17.77;33.16;95837.16;10426205;28;2647;-47
2023/01/21 12:51:37;;;;;;;;;;;;;;;17.80;33.57;95836.63;10423829;28;2706;-50
2023/01/21 12:56:45;;;;;;;;;;;;;;;17.84;33.96;95836.94;10428137;28;2507;-50
2023/01/21 13:01:59;;;;;;;;;;;;;;;17.81;33.94;95834.81;10421279;28;2543;-53
2023/01/21 13:07:04;;;;;;;;;;;;;;;17.83;33.98;95838.75;10420312;28;2721;-48
2023/01/21 13:12:08;;;;;;;;;;;;;;;17.87;34.63;95839.84;10421585;28;2629;-48
2023/01/21 13:17:14;;;;;;;;;;;;;;;17.90;35.40;95849.03;10418927;28;2655;-49
2023/01/21 13:22:17;;;;;;;;;;;;;;;17.93;35.39;95842.50;10419194;28;2640;-49
2023/01/21 13:27:25;;;;;;;;;;;;;;;17.95;35.63;95838.56;10419586;28;2615;-50
2023/01/21 13:32:29;;;;;;;;;;;;;;;17.99;35.78;95850.13;10427543;28;2680;-50
2023/01/21 13:37:42;;;;;;;;;;;;;;;17.98;35.50;95850.38;10430770;28;2549;-48
2023/01/21 13:42:46;;;;;;;;;;;;;;;17.97;35.49;95856.69;10426267;28;2609;-49
2023/01/21 13:47:51;;;;;;;;;;;;;;;17.96;36.43;95858.50;10453008;28;2653;-53
2023/01/21 13:53:10;;;;;;;;;;;;;;;17.95;36.75;95861.41;10426733;28;2585;-50
2023/01/21 13:58:10;;;;;;;;;;;;;;;18.07;35.81;95867.22;10424304;28;2584;-47
2023/01/21 14:03:13;;;;;;;;;;;;;;;18.15;36.96;95864.13;10420050;28;2660;-51
2023/01/21 14:08:25;;;;;;;;;;;;;;;18.28;38.37;95861.03;10422140;28;2675;-49
2023/01/21 14:13:44;;;;;;;;;;;;;;;18.32;39.05;95864.72;10415566;28;2573;-50
2023/01/21 14:18:56;;;;;;;;;;;;;;;18.40;38.76;95866.88;10419313;28;2564;-50
2023/01/21 14:24:03;;;;;;;;;;;;;;;18.40;39.50;95864.25;10424758;28;2604;-50
2023/01/21 14:29:18;;;;;;;;;;;;;;;18.43;39.69;95869.78;10417562;28;2636;-48
2023/01/21 14:34:18;;;;;;;;;;;;;;;18.41;38.54;95881.56;10419417;28;2662;-52
2023/01/21 14:39:33;;;;;;;;;;;;;;;18.38;38.11;95888.09;10429170;28;2588;-58
2023/01/21 14:44:33;;;;;;;;;;;;;;;18.42;38.48;95886.53;10425321;28;2582;-48
2023/01/21 14:49:37;;;;;;;;;;;;;;;18.49;38.59;95891.59;10424069;28;2554;-48
2023/01/21 14:54:37;;;;;;;;;;;;;;;18.58;38.51;95884.81;10421930;28;2545;-50
2023/01/21 14:59:40;;;;;;;;;;;;;;;18.72;38.52;95890.34;10420706;28;2618;-51
2023/01/21 15:04:46;;;;;;;;;;;;;;;18.86;38.90;95891.44;10420748;28;2721;-49
2023/01/21 15:09:49;;;;;;;;;;;;;;;18.97;38.70;95896.47;10456362;28;2602;-55
2023/01/21 15:14:49;;;;;;;;;;;;;;;19.06;39.34;95897.53;10423380;28;2581;-48
2023/01/21 15:19:55;;;;;;;;;;;;;;;19.17;39.00;95893.88;10429070;28;2671;-51
2023/01/21 15:25:01;;;;;;;;;;;;;;;19.25;39.17;95895.19;10419285;28;2715;-51
2023/01/21 15:30:02;;;;;;;;;;;;;;;19.32;39.53;95901.00;10414038;28;2523;-50
2023/01/21 15:35:18;;;;;;;;;;;;;;;19.37;39.41;95899.19;10417154;28;2538;-50
2023/01/21 15:40:19;;;;;;;;;;;;;;;19.41;39.52;95899.47;10412661;28;2540;-51
2023/01/21 15:45:26;;;;;;;;;;;;;;;19.41;39.36;95894.22;10418126;28;2537;-53
2023/01/21 15:50:30;;;;;;;;;;;;;;;19.49;39.95;95910.22;10423088;28;2597;-51
2023/01/21 15:55:39;;;;;;;;;;;;;;;19.56;39.79;95906.56;10407977;28;2564;-53
2023/01/21 16:00:46;;;;;;;;;;;;;;;19.56;40.47;95911.84;10418327;28;2613;-51
2023/01/21 16:05:52;;;;;;;;;;;;;;;19.61;40.08;95917.06;10415688;28;2596;-49
2023/01/21 16:10:58;;;;;;;;;;;;;;;19.59;38.54;95917.34;10416528;28;2576;-53
2023/01/21 16:16:02;;;;;;;;;;;;;;;19.64;39.40;95922.59;10420439;28;2615;-51
2023/01/21 16:21:02;;;;;;;;;;;;;;;19.66;39.16;95927.63;10426232;28;2605;-55
2023/01/21 16:26:03;;;;;;;;;;;;;;;19.60;39.18;95932.06;10426801;28;2928;-52
2023/01/21 16:31:03;;;;;;;;;;;;;;;19.60;39.16;95926.03;10416769;28;2653;-48
2023/01/21 16:36:06;;;;;;;;;;;;;;;19.60;40.01;95936.56;10419533;28;2616;-51
2023/01/21 16:41:06;;;;;;;;;;;;;;;19.63;38.93;95942.06;10418889;28;2607;-53
2023/01/21 16:46:09;;;;;;;;;;;;;;;19.69;38.13;95938.38;10414763;28;2663;-58
2023/01/21 16:51:16;;;;;;;;;;;;;;;19.68;38.66;95938.66;10422709;28;2610;-63
2023/01/21 16:56:23;;;;;;;;;;;;;;;19.69;38.29;95948.09;10423919;28;2544;-53
2023/01/21 17:01:24;;;;;;;;;;;;;;;19.83;38.74;95946.53;10425506;28;2629;-53
2023/01/21 17:06:26;;;;;;;;;;;;;;;19.77;37.66;95944.94;10426368;28;2545;-54
2023/01/21 17:11:26;;;;;;;;;;;;;;;19.79;37.82;95950.72;10424542;28;2628;-52
2023/01/21 17:16:30;;;;;;;;;;;;;;;18.85;33.08;95958.16;10420424;28;2601;-53
2023/01/21 17:21:43;;;;;;;;;;;;;;;19.25;36.10;95956.44;10416876;28;2753;-54
2023/01/21 17:26:44;;;;;;;;;;;;;;;19.45;36.54;95969.66;10423479;28;2615;-54
2023/01/21 17:31:45;;;;;;;;;;;;;;;19.63;37.27;95960.47;10421492;28;2574;-51
2023/01/21 17:36:46;;;;;;;;;;;;;;;19.74;36.90;95966.53;10420967;28;2637;-53
2023/01/21 17:41:46;;;;;;;;;;;;;;;19.90;36.94;95971.53;10426912;28;2828;-53
2023/01/21 17:46:47;;;;;;;;;;;;;;;19.99;36.41;95969.94;10428405;28;2574;-48
2023/01/21 17:51:48;;;;;;;;;;;;;;;20.06;36.61;95974.94;10427490;28;2583;-51
2023/01/21 17:56:48;;;;;;;;;;;;;;;20.10;36.28;95976.78;10422839;28;2588;-52
2023/01/21 18:01:48;;;;;;;;;;;;;;;20.14;36.05;95982.28;10431977;28;2582;-52
2023/01/21 18:06:49;;;;;;;;;;;;;;;20.17;35.47;95979.91;10445774;28;2693;-52
2023/01/21 18:11:50;;;;;;;;;;;;;;;20.18;35.45;95980.72;10424073;28;2571;-50
2023/01/21 18:16:52;;;;;;;;;;;;;;;20.17;35.14;95981.78;10422653;28;2639;-52
2023/01/21 18:21:52;;;;;;;;;;;;;;;20.09;35.17;95984.94;10452896;28;2597;-52
2023/01/21 18:26:52;;;;;;;;;;;;;;;20.01;34.93;95983.63;10425878;28;2644;-51
2023/01/21 18:31:53;;;;;;;;;;;;;;;19.95;34.79;95986.50;10420135;28;2624;-59
2023/01/21 18:36:55;;;;;;;;;;;;;;;19.90;34.68;95987.31;10426669;28;2816;-59
2023/01/21 18:41:55;;;;;;;;;;;;;;;19.87;34.59;95990.47;10426751;28;2822;-57
2023/01/21 18:46:55;;;;;;;;;;;;;;;19.85;34.63;95986.50;10423635;28;2628;-51
2023/01/21 18:51:56;;;;;;;;;;;;;;;19.88;34.83;95999.94;10425723;28;2591;-51
2023/01/21 18:56:56;;;;;;;;;;;;;;;19.82;34.30;96001.00;10417590;28;2568;-56
2023/01/21 19:01:56;;;;;;;;;;;;;;;19.78;34.12;95999.16;10412928;28;2675;-57
2023/01/21 19:06:57;;;;;;;;;;;;;;;19.76;34.79;96001.25;10424927;28;2590;-56
2023/01/21 19:11:57;;;;;;;;;;;;;;;19.72;34.25;96000.19;10411624;28;2616;-59
2023/01/21 19:16:57;;;;;;;;;;;;;;;19.69;33.88;96000.72;10410002;28;2587;-57
2023/01/21 19:21:57;;;;;;;;;;;;;;;19.65;34.09;95997.03;10416469;28;2554;-57
2023/01/21 19:26:58;;;;;;;;;;;;;;;19.67;33.72;96000.19;10410058;28;2625;-55
2023/01/21 19:31:58;;;;;;;;;;;;;;;19.63;34.16;95999.13;10421476;28;2601;-53
2023/01/21 19:36:58;;;;;;;;;;;;;;;19.70;33.62;95997.03;10426930;28;2616;-61
2023/01/21 19:41:59;;;;;;;;;;;;;;;19.71;33.85;96006.50;10431615;28;2604;-48
2023/01/21 19:46:59;;;;;;;;;;;;;;;19.70;33.48;96010.19;10424898;28;2515;-51
2023/01/21 19:51:59;;;;;;;;;;;;;;;19.67;33.85;96005.44;10422638;28;2533;-58
2023/01/21 19:56:59;;;;;;;;;;;;;;;19.63;34.74;96013.06;10419909;28;2559;-53
2023/01/21 20:02:00;;;;;;;;;;;;;;;19.61;34.56;96015.16;10416661;28;2782;-55
2023/01/21 20:07:00;;;;;;;;;;;;;;;19.60;33.59;96018.06;10421587;28;2676;-52
2023/01/21 20:12:01;;;;;;;;;;;;;;;19.59;35.05;96011.22;10412899;28;2636;-48
2023/01/21 20:17:01;;;;;;;;;;;;;;;19.58;34.40;96020.16;10425784;28;2671;-51
2023/01/21 20:22:02;;;;;;;;;;;;;;;19.56;34.16;96022.28;10423930;28;2612;-58
2023/01/21 20:27:02;;;;;;;;;;;;;;;19.58;33.61;96025.44;10425610;28;2612;-60
2023/01/21 20:32:03;;;;;;;;;;;;;;;19.59;33.97;96027.78;10434119;28;2548;-59
2023/01/21 20:37:04;;;;;;;;;;;;;;;19.57;34.31;96027.25;10422441;28;2613;-49
2023/01/21 20:42:04;;;;;;;;;;;;;;;19.58;34.26;96026.19;10430457;28;2690;-50
2023/01/21 20:47:04;;;;;;;;;;;;;;;19.52;34.02;96026.44;10437715;28;2549;-53
2023/01/21 20:52:04;;;;;;;;;;;;;;;19.63;35.12;96026.22;10438170;28;2669;-48
2023/01/21 20:57:11;;;;;;;;;;;;;;;19.62;34.66;96014.09;10441605;28;2569;-50
2023/01/21 21:02:11;;;;;;;;;;;;;;;19.64;34.96;96019.13;10441242;28;3040;-52
2023/01/21 21:07:22;;;;;;;;;;;;;;;19.65;35.06;96021.50;10439601;28;2658;-51
2023/01/21 21:12:23;;;;;;;;;;;;;;;19.66;34.83;96022.28;10439601;28;2596;-48
2023/01/21 21:17:23;;;;;;;;;;;;;;;19.66;34.80;96017.03;10440249;28;2646;-48
2023/01/21 21:22:23;;;;;;;;;;;;;;;19.64;35.05;96017.25;10442173;28;2749;-50
2023/01/21 21:27:23;;;;;;;;;;;;;;;19.63;35.26;96017.53;10438441;28;2741;-50
2023/01/21 21:32:24;;;;;;;;;;;;;;;19.62;35.14;96022.00;10439824;28;2603;-48
2023/01/21 21:37:24;;;;;;;;;;;;;;;19.62;34.81;96021.22;10443057;28;2611;-51
2023/01/21 21:53:04;;;;;;;;;;;;;;;19.62;35.08;96022.00;10402094;28;2662;-50
2023/01/21 21:58:04;;;;;;;;;;;;;;;19.58;35.07;96028.06;10422296;28;2666;-48
2023/01/21 22:03:06;;;;;;;;;;;;;;;19.54;34.90;96019.13;10437472;28;2533;-50
2023/01/21 22:08:08;;;;;;;;;;;;;;;19.51;34.74;96019.63;10436494;28;2791;-48
2023/01/21 22:13:08;;;;;;;;;;;;;;;19.49;34.46;96014.63;10440640;28;2606;-50
2023/01/21 22:18:08;;;;;;;;;;;;;;;19.43;34.53;96019.06;10435340;28;2693;-51
2023/01/21 22:23:08;;;;;;;;;;;;;;;19.41;34.89;96013.28;10464677;28;2792;-50
2023/01/21 22:28:09;;;;;;;;;;;;;;;19.40;34.37;96013.53;10438381;28;2581;-51
2023/01/21 22:33:09;;;;;;;;;;;;;;;19.37;34.65;96017.47;10430504;28;2545;-51
2023/01/21 22:38:09;;;;;;;;;;;;;;;19.32;34.41;96022.69;10416913;28;2592;-51
2023/01/21 22:43:10;;;;;;;;;;;;;;;19.24;34.15;96020.56;10422132;28;2688;-49
2023/01/21 22:48:10;;;;;;;;;;;;;;;19.16;34.09;96013.19;10413297;28;2583;-48
2023/01/21 22:53:11;;;;;;;;;;;;;;;19.10;33.70;96014.19;10412882;28;2674;-49
2023/01/21 22:58:11;;;;;;;;;;;;;;;19.02;33.65;96017.31;10423910;28;2607;-49
2023/01/21 23:03:11;;;;;;;;;;;;;;;18.96;33.83;96015.72;10429259;28;2561;-50
2023/01/21 23:08:12;;;;;;;;;;;;;;;18.90;33.75;96019.38;10413961;28;2602;-49
2023/01/21 23:13:12;;;;;;;;;;;;;;;18.86;33.54;96018.31;10427274;28;2541;-51
2023/01/21 23:18:13;;;;;;;;;;;;;;;18.84;33.40;96014.34;10416144;28;2625;-51
2023/01/21 23:23:14;;;;;;;;;;;;;;;18.81;33.65;96015.69;10430032;28;2540;-50
2023/01/21 23:28:14;;;;;;;;;;;;;;;18.79;33.17;96023.03;10417165;28;2687;-49
2023/01/21 23:33:14;;;;;;;;;;;;;;;18.69;33.62;96015.88;10418606;28;3099;-53
2023/01/21 23:38:15;;;;;;;;;;;;;;;18.68;33.44;96013.50;10415772;28;2602;-51
2023/01/21 23:43:15;;;;;;;;;;;;;;;18.68;33.23;96003.00;10415156;28;2711;-51
2023/01/21 23:48:15;;;;;;;;;;;;;;;18.69;32.96;96001.97;10423380;28;2608;-49
2023/01/21 23:53:16;;;;;;;;;;;;;;;18.60;33.30;96003.47;10422823;28;2633;-50
2023/01/21 23:58:16;;;;;;;;;;;;;;;18.60;33.11;95999.03;10422465;28;3293;-51
